createdAt,value
2022-09-24T00:04:32.684Z,1003.94
2022-09-24T00:09:36.877Z,1003.95
2022-09-24T00:14:41.022Z,1003.97
2022-09-24T00:19:45.165Z,1003.94
2022-09-24T00:24:49.349Z,1003.99
2022-09-24T00:29:53.486Z,1003.96
2022-09-24T00:34:57.689Z,1003.85
2022-09-24T00:40:01.828Z,1003.92
2022-09-24T00:45:06.001Z,1003.81
2022-09-24T00:50:10.155Z,1003.92
2022-09-24T00:55:14.305Z,1003.81
2022-09-24T01:00:18.493Z,1003.74
2022-09-24T01:05:22.657Z,1003.67
2022-09-24T01:10:26.822Z,1003.71
2022-09-24T01:15:30.953Z,1003.81
2022-09-24T01:20:35.133Z,1003.79
2022-09-24T01:25:39.263Z,1003.79
2022-09-24T01:30:43.451Z,1003.91
2022-09-24T01:35:47.584Z,1003.81
2022-09-24T01:40:51.913Z,1003.78
2022-09-24T01:51:00.080Z,1003.63
2022-09-24T01:56:04.281Z,1003.57
2022-09-24T02:01:08.549Z,1003.47
2022-09-24T02:06:12.570Z,1003.46
2022-09-24T02:11:16.724Z,1003.42
2022-09-24T02:16:20.948Z,1003.45
2022-09-24T02:21:25.039Z,1003.41
2022-09-24T02:26:29.244Z,1003.38
2022-09-24T02:31:33.457Z,1003.39
2022-09-24T02:36:37.551Z,1003.36
2022-09-24T02:41:41.706Z,1003.37
2022-09-24T02:46:45.999Z,1003.40
2022-09-24T02:51:50.042Z,1003.27
2022-09-24T02:56:54.208Z,1003.31
2022-09-24T03:01:58.495Z,1003.35
2022-09-24T03:07:02.519Z,1003.27
2022-09-24T03:12:06.679Z,1003.17
2022-09-24T03:17:10.811Z,1003.25
2022-09-24T03:22:14.995Z,1003.22
2022-09-24T03:27:19.136Z,1003.21
2022-09-24T03:32:23.291Z,1003.11
2022-09-24T03:37:27.466Z,1003.09
2022-09-24T03:42:31.642Z,1003.04
2022-09-24T03:47:35.777Z,1002.99
2022-09-24T03:52:39.935Z,1002.95
2022-09-24T03:57:44.099Z,1002.87
2022-09-24T04:02:48.335Z,1002.86
2022-09-24T04:07:52.408Z,1002.79
2022-09-24T04:12:54.689Z,1002.80
2022-09-24T04:17:58.867Z,1002.77
2022-09-24T04:23:03.020Z,1002.74
2022-09-24T04:28:07.197Z,1002.65
2022-09-24T04:33:11.347Z,1002.72
2022-09-24T04:38:15.494Z,1002.75
2022-09-24T04:43:19.645Z,1002.76
2022-09-24T04:48:23.799Z,1002.79
2022-09-24T04:53:28.017Z,1002.70
2022-09-24T04:58:32.201Z,1002.78
2022-09-24T05:03:36.290Z,1002.75
2022-09-24T05:08:40.478Z,1002.74
2022-09-24T05:13:44.636Z,1002.72
2022-09-24T05:18:48.758Z,1002.59
2022-09-24T05:23:52.948Z,1002.66
2022-09-24T05:28:57.126Z,1002.68
2022-09-24T05:34:01.283Z,1002.66
2022-09-24T05:39:05.420Z,1002.69
2022-09-24T05:44:09.579Z,1002.77
2022-09-24T05:49:13.746Z,1002.74
2022-09-24T05:54:17.922Z,1002.67
2022-09-24T05:59:22.052Z,1002.75
2022-09-24T06:04:26.207Z,1002.75
2022-09-24T06:09:30.415Z,1002.80
2022-09-24T06:14:34.536Z,1002.80
2022-09-24T06:19:38.688Z,1002.84
2022-09-24T06:24:42.875Z,1002.85
2022-09-24T06:29:47.016Z,1002.83
2022-09-24T06:34:54.441Z,1002.89
2022-09-24T06:39:55.336Z,1002.93
2022-09-24T06:44:59.531Z,1003.04
2022-09-24T06:50:03.693Z,1003.10
2022-09-24T06:55:07.815Z,1003.09
2022-09-24T07:00:12.009Z,1003.12
2022-09-24T07:05:16.172Z,1003.15
2022-09-24T07:10:20.282Z,1003.06
2022-09-24T07:15:24.471Z,1003.13
2022-09-24T07:20:28.630Z,1003.07
2022-09-24T07:25:32.769Z,1003.12
2022-09-24T07:30:36.991Z,1003.14
2022-09-24T07:35:41.109Z,1003.15
2022-09-24T07:40:45.404Z,1003.15
2022-09-24T07:45:49.423Z,1003.18
2022-09-24T07:50:53.673Z,1003.12
2022-09-24T07:55:57.789Z,1003.17
2022-09-24T08:01:01.953Z,1003.16
2022-09-24T08:06:06.085Z,1003.18
2022-09-24T08:11:10.236Z,1003.21
2022-09-24T08:16:14.449Z,1003.17
2022-09-24T08:21:18.575Z,1003.25
2022-09-24T08:26:22.747Z,1003.12
2022-09-24T08:31:26.992Z,1003.28
2022-09-24T08:36:31.039Z,1003.23
2022-09-24T08:41:35.299Z,1003.23
2022-09-24T08:46:37.576Z,1003.10
2022-09-24T08:51:41.646Z,1003.08
2022-09-24T08:56:45.802Z,1003.07
2022-09-24T09:01:50.043Z,1003.09
2022-09-24T09:06:54.095Z,1003.17
2022-09-24T09:11:58.307Z,1003.21
2022-09-24T09:17:02.612Z,1003.26
2022-09-24T09:22:06.615Z,1003.31
2022-09-24T09:27:10.769Z,1003.29
2022-09-24T09:32:14.918Z,1003.31
2022-09-24T09:37:24.920Z,1003.30
2022-09-24T09:42:23.220Z,1003.30
2022-09-24T09:47:27.373Z,1003.22
2022-09-24T09:52:31.560Z,1003.22
2022-09-24T09:57:35.717Z,1003.25
2022-09-24T10:02:40.059Z,1003.28
2022-09-24T10:07:44.022Z,1003.23
2022-09-24T10:12:48.234Z,1003.18
2022-09-24T10:17:52.354Z,1003.19
2022-09-24T10:22:56.524Z,1003.18
2022-09-24T10:28:00.673Z,1003.17
2022-09-24T10:33:04.815Z,1003.17
2022-09-24T10:38:08.987Z,1003.18
2022-09-24T10:43:13.130Z,1003.21
2022-09-24T10:48:17.320Z,1003.23
2022-09-24T10:53:21.434Z,1003.27
2022-09-24T10:58:25.627Z,1003.19
2022-09-24T11:03:29.772Z,1003.27
2022-09-24T11:08:33.939Z,1003.26
2022-09-24T11:13:38.129Z,1003.24
2022-09-24T11:23:46.411Z,1003.12
2022-09-24T11:28:50.598Z,1003.12
2022-09-24T11:33:54.763Z,1003.12
2022-09-24T11:38:58.908Z,1003.14
2022-09-24T11:44:03.031Z,1003.12
2022-09-24T11:49:07.212Z,1003.04
2022-09-24T11:54:11.417Z,1003.11
2022-09-24T11:59:15.543Z,1003.04
2022-09-24T12:04:19.693Z,1003.04
2022-09-24T12:09:23.833Z,1003.05
2022-09-24T12:14:27.992Z,1003.08
2022-09-24T12:19:32.149Z,1003.01
2022-09-24T12:24:36.350Z,1002.95
2022-09-24T12:29:40.474Z,1003.03
2022-09-24T12:34:44.688Z,1003.00
2022-09-24T12:39:48.802Z,1002.96
2022-09-24T12:44:52.961Z,1002.97
2022-09-24T12:49:57.312Z,1002.90
2022-09-24T12:55:01.304Z,1002.84
2022-09-24T13:00:05.444Z,1002.91
2022-09-24T13:05:09.629Z,1002.90
2022-09-24T13:10:13.736Z,1002.77
2022-09-24T13:15:17.944Z,1002.81
2022-09-24T13:20:22.109Z,1002.82
2022-09-24T13:25:26.236Z,1002.83
2022-09-24T13:30:30.408Z,1002.78
2022-09-24T13:35:34.580Z,1002.79
2022-09-24T13:40:38.829Z,1002.87
2022-09-24T13:45:42.889Z,1002.89
2022-09-24T13:50:47.012Z,1002.75
2022-09-24T13:55:51.186Z,1002.84
2022-09-24T14:00:55.337Z,1002.79
2022-09-24T14:05:59.517Z,1002.83
2022-09-24T14:11:03.681Z,1002.85
2022-09-24T14:16:05.981Z,1002.88
2022-09-24T14:21:10.111Z,1002.93
2022-09-24T14:27:16.474Z,1002.84
2022-09-24T14:32:20.660Z,1002.89
2022-09-24T14:37:24.796Z,1002.92
2022-09-24T14:42:30.814Z,1002.99
2022-09-24T14:47:33.121Z,1002.98
2022-09-24T14:57:46.079Z,1002.99
2022-09-24T15:02:45.583Z,1003.03
2022-09-24T15:07:53.761Z,1003.02
2022-09-24T15:12:53.896Z,1003.10
2022-09-24T15:17:58.093Z,1003.04
2022-09-24T15:23:02.258Z,1003.09
2022-09-24T15:28:06.425Z,1003.12
2022-09-24T15:33:10.571Z,1003.13
2022-09-24T15:38:14.716Z,1003.05
2022-09-24T15:43:18.870Z,1003.03
2022-09-24T15:48:23.079Z,1003.04
2022-09-24T15:53:27.192Z,1003.10
2022-09-24T15:58:31.364Z,1003.12
2022-09-24T16:03:35.542Z,1003.12
2022-09-24T16:08:37.772Z,1003.18
2022-09-24T16:13:41.963Z,1003.15
2022-09-24T16:18:44.231Z,1003.17
2022-09-24T16:23:48.386Z,1003.28
2022-09-24T16:28:52.556Z,1003.27
2022-09-24T16:33:56.692Z,1003.27
2022-09-24T16:39:00.881Z,1003.33
2022-09-24T16:44:05.015Z,1003.34
2022-09-24T16:49:09.286Z,1003.32
2022-09-24T16:54:13.371Z,1003.42
2022-09-24T16:59:17.489Z,1003.39
2022-09-24T17:04:22.653Z,1003.41
2022-09-24T17:09:25.838Z,1003.37
2022-09-24T17:14:31.999Z,1003.49
2022-09-24T17:19:34.112Z,1003.62
2022-09-24T17:24:38.320Z,1003.60
2022-09-24T17:29:42.435Z,1003.63
2022-09-24T17:34:46.637Z,1003.62
2022-09-24T17:39:50.762Z,1003.64
2022-09-24T17:44:54.957Z,1003.67
2022-09-24T17:49:59.071Z,1003.71
2022-09-24T17:55:03.291Z,1003.66
2022-09-24T18:00:07.428Z,1003.74
2022-09-24T18:05:09.710Z,1003.72
2022-09-24T18:10:13.855Z,1003.70
2022-09-24T18:15:20.012Z,1003.79
2022-09-24T18:20:22.167Z,1003.87
2022-09-24T18:25:26.318Z,1003.88
2022-09-24T18:30:30.509Z,1003.93
2022-09-24T18:35:34.638Z,1003.97
2022-09-24T18:40:38.910Z,1004.03
2022-09-24T18:45:42.949Z,1004.11
2022-09-24T18:50:47.279Z,1004.09
2022-09-24T18:55:51.280Z,1004.14
2022-09-24T19:00:55.495Z,1004.07
2022-09-24T19:05:59.599Z,1004.10
2022-09-24T19:11:03.762Z,1004.21
2022-09-24T19:16:08.001Z,1004.22
2022-09-24T19:21:12.075Z,1004.23
2022-09-24T19:26:16.253Z,1004.24
2022-09-24T19:31:20.449Z,1004.33
2022-09-24T19:36:24.574Z,1004.33
2022-09-24T19:41:28.758Z,1004.28
2022-09-24T19:46:33.036Z,1004.26
2022-09-24T19:51:35.160Z,1004.23
2022-09-24T19:56:39.345Z,1004.25
2022-09-24T20:01:43.760Z,1004.21
2022-09-24T20:06:47.630Z,1004.18
2022-09-24T20:11:51.826Z,1004.27
2022-09-24T20:16:55.988Z,1004.29
2022-09-24T20:22:00.093Z,1004.23
2022-09-24T20:27:04.278Z,1004.31
2022-09-24T20:32:08.488Z,1004.34
2022-09-24T20:37:12.627Z,1004.43
2022-09-24T20:42:16.827Z,1004.44
2022-09-24T20:47:20.940Z,1004.40
2022-09-24T20:52:25.109Z,1004.36
2022-09-24T20:57:29.244Z,1004.47
2022-09-24T21:02:35.802Z,1004.38
2022-09-24T21:07:37.590Z,1004.41
2022-09-24T21:12:41.734Z,1004.38
2022-09-24T21:18:05.117Z,1004.50
2022-09-24T21:22:50.062Z,1004.55
2022-09-24T21:27:54.201Z,1004.55
2022-09-24T21:32:58.370Z,1004.46
2022-09-24T21:38:00.693Z,1004.53
2022-09-24T21:43:04.792Z,1004.65
2022-09-24T21:48:07.059Z,1004.65
2022-09-24T21:53:11.226Z,1004.63
2022-09-24T21:58:13.493Z,1004.60
2022-09-24T22:03:17.664Z,1004.62
2022-09-24T22:08:21.844Z,1004.68
2022-09-24T22:13:25.998Z,1004.58
2022-09-24T22:18:30.149Z,1004.58
2022-09-24T22:23:34.288Z,1004.52
2022-09-24T22:28:38.461Z,1004.52
2022-09-24T22:33:42.643Z,1004.53
2022-09-24T22:38:46.780Z,1004.55
2022-09-24T22:43:50.954Z,1004.49
2022-09-24T22:48:55.119Z,1004.46
2022-09-24T22:53:59.280Z,1004.52
2022-09-24T22:59:03.439Z,1004.52
2022-09-24T23:04:07.586Z,1004.50
2022-09-24T23:09:11.783Z,1004.56
2022-09-24T23:14:15.900Z,1004.62
2022-09-24T23:19:20.073Z,1004.56
2022-09-24T23:24:24.251Z,1004.54
2022-09-24T23:29:28.407Z,1004.50
2022-09-24T23:34:32.538Z,1004.48
2022-09-24T23:39:36.743Z,1004.47
2022-09-24T23:44:38.988Z,1004.55
2022-09-24T23:49:43.128Z,1004.52
2022-09-24T23:54:45.463Z,1004.62
2022-09-24T23:59:49.590Z,1004.61
